Time;durP1;ratioP1;P1;durP2;ratioP2;P2;SDS_P1;SDS_P2;PMS_P1;PMS_P2;Temp;Humidity;BMP_temperature;BMP_pressure;BME280_temperature;BME280_humidity;BME280_pressure;Samples;Min_cycle;Max_cycle;Signal;HPM_P1;HPM_P2
2024/02/02 00:01:57;;;;;;;9.30;5.20;;;;;;;4.65;76.38;100175.06;4995281;28;104543;-74
2024/02/02 00:04:25;;;;;;;7.50;4.30;;;;;;;4.67;76.24;100182.00;5014071;28;102773;-73
2024/02/02 00:06:55;;;;;;;5.80;3.50;;;;;;;4.67;76.12;100176.75;5006048;28;104030;-74
2024/02/02 00:09:23;;;;;;;6.45;3.83;;;;;;;4.68;76.39;100174.03;5005279;28;104086;-74
2024/02/02 00:11:53;;;;;;;7.25;3.40;;;;;;;4.67;76.40;100166.25;4986835;28;104403;-74
2024/02/02 00:14:21;;;;;;;6.13;2.97;;;;;;;4.71;76.28;100168.59;5009433;28;102601;-74
2024/02/02 00:16:49;;;;;;;8.63;4.30;;;;;;;4.72;75.89;100165.03;5011760;28;104233;-73
2024/02/02 00:19:18;;;;;;;9.07;4.95;;;;;;;4.63;75.56;100176.94;4987258;28;104169;-74
2024/02/02 00:21:46;;;;;;;8.55;4.80;;;;;;;4.64;76.01;100172.53;5005832;28;103463;-73
2024/02/02 00:24:16;;;;;;;11.65;5.72;;;;;;;4.62;75.64;100166.53;4989044;28;103121;-74
2024/02/02 00:26:44;;;;;;;8.10;4.20;;;;;;;4.52;75.89;100178.53;5002053;28;104284;-74
2024/02/02 00:29:12;;;;;;;11.15;5.70;;;;;;;4.47;75.90;100171.78;4993931;28;103745;-74
2024/02/02 00:31:41;;;;;;;8.98;5.15;;;;;;;4.46;75.72;100177.97;4994783;28;103317;-74
2024/02/02 00:34:09;;;;;;;9.55;5.18;;;;;;;4.44;76.05;100158.84;5007296;28;102638;-73
2024/02/02 00:36:37;;;;;;;5.55;3.70;;;;;;;4.40;75.79;100170.47;5010311;28;104197;-74
2024/02/02 00:39:05;;;;;;;6.55;4.47;;;;;;;4.39;76.04;100160.91;5008837;28;103292;-74
2024/02/02 00:41:35;;;;;;;6.30;3.92;;;;;;;4.23;75.98;100157.50;5006856;28;105194;-73
2024/02/02 00:44:06;;;;;;;6.18;3.85;;;;;;;4.24;75.89;100156.59;5013329;28;102706;-74
2024/02/02 00:46:34;;;;;;;5.63;3.80;;;;;;;4.23;75.97;100153.13;5011621;28;102742;-74
2024/02/02 00:49:02;;;;;;;6.00;3.38;;;;;;;4.22;75.59;100153.19;5013726;28;103994;-74
2024/02/02 00:51:31;;;;;;;8.57;4.32;;;;;;;4.21;75.73;100151.53;4987553;28;102983;-73
2024/02/02 00:53:59;;;;;;;6.00;3.47;;;;;;;4.19;75.93;100148.13;5003159;28;102912;-74
2024/02/02 00:56:27;;;;;;;7.30;4.50;;;;;;;4.11;75.35;100152.06;4986305;28;102760;-73
2024/02/02 00:58:56;;;;;;;5.95;3.80;;;;;;;4.11;75.85;100154.69;4989131;28;103876;-73
2024/02/02 01:01:24;;;;;;;6.18;3.50;;;;;;;4.13;76.04;100150.19;5003929;28;103112;-74
2024/02/02 01:03:52;;;;;;;8.75;4.82;;;;;;;4.19;76.16;100140.28;4997031;28;102709;-74
2024/02/02 01:06:20;;;;;;;9.60;4.40;;;;;;;4.14;76.25;100141.41;5007779;28;103815;-73
2024/02/02 01:08:49;;;;;;;5.30;3.30;;;;;;;4.13;76.31;100139.69;4994373;28;104085;-74
2024/02/02 01:11:19;;;;;;;12.60;4.10;;;;;;;4.09;76.17;100130.34;5010454;28;103376;-74
2024/02/02 01:13:47;;;;;;;7.35;3.78;;;;;;;4.09;75.85;100132.97;5009364;28;102671;-73
2024/02/02 01:16:16;;;;;;;8.38;3.03;;;;;;;4.03;75.50;100135.94;5019415;28;103824;-74
2024/02/02 01:18:45;;;;;;;4.30;2.97;;;;;;;4.04;76.20;100139.41;5007804;28;103459;-73
2024/02/02 01:21:13;;;;;;;4.28;2.85;;;;;;;4.00;75.73;100136.13;4991318;28;103335;-73
2024/02/02 01:23:41;;;;;;;6.13;3.25;;;;;;;3.96;75.52;100134.63;5014009;28;102955;-73
2024/02/02 01:26:09;;;;;;;4.15;2.72;;;;;;;3.93;75.99;100140.03;4989817;28;104377;-73
2024/02/02 01:28:37;;;;;;;4.97;2.97;;;;;;;3.91;75.62;100126.19;5011089;28;103992;-73
2024/02/02 01:31:05;;;;;;;5.97;2.92;;;;;;;3.94;76.18;100121.63;5014236;28;103317;-73
2024/02/02 01:33:35;;;;;;;5.20;2.88;;;;;;;3.97;75.83;100131.06;5008094;28;102839;-72
2024/02/02 01:36:03;;;;;;;9.57;5.70;;;;;;;3.91;75.73;100126.19;5009539;28;104491;-73
2024/02/02 01:38:31;;;;;;;8.90;4.25;;;;;;;3.78;75.91;100134.75;4994886;28;104317;-73
2024/02/02 01:40:59;;;;;;;10.88;5.38;;;;;;;3.76;75.71;100134.00;4991964;28;104363;-73
2024/02/02 01:43:27;;;;;;;10.85;4.10;;;;;;;3.69;76.57;100122.19;5018156;28;102666;-73
2024/02/02 01:45:55;;;;;;;5.78;4.00;;;;;;;3.69;76.60;100134.47;5018433;28;104116;-73
2024/02/02 01:48:24;;;;;;;5.88;3.67;;;;;;;3.68;76.15;100130.97;5016650;28;103320;-72
2024/02/02 01:50:53;;;;;;;5.38;2.83;;;;;;;3.71;76.49;100125.56;5007755;28;103289;-73
2024/02/02 01:53:22;;;;;;;6.43;3.53;;;;;;;3.74;76.33;100125.38;5009062;28;102821;-73
2024/02/02 01:55:50;;;;;;;5.05;3.35;;;;;;;3.74;76.19;100128.00;4989736;28;104291;-73
2024/02/02 01:58:18;;;;;;;5.45;2.60;;;;;;;3.72;76.10;100137.75;5017876;28;103886;-73
2024/02/02 02:00:46;;;;;;;5.07;2.78;;;;;;;3.79;76.65;100140.84;5000904;28;103182;-73
2024/02/02 02:03:15;;;;;;;4.43;2.50;;;;;;;3.84;76.06;100140.56;5011786;28;102881;-73
2024/02/02 02:05:43;;;;;;;5.90;2.63;;;;;;;3.85;76.23;100129.16;4990218;28;102875;-73
2024/02/02 02:08:13;;;;;;;5.70;2.65;;;;;;;3.89;76.27;100122.81;5009504;28;103423;-73
2024/02/02 02:10:41;;;;;;;3.85;2.22;;;;;;;3.85;76.40;100123.91;5008565;28;103242;-72
2024/02/02 02:13:09;;;;;;;4.10;2.50;;;;;;;3.84;76.36;100111.75;4990730;28;102730;-72
2024/02/02 02:15:38;;;;;;;4.22;2.83;;;;;;;3.83;76.22;100112.69;5014168;28;102644;-72
2024/02/02 02:18:06;;;;;;;7.82;2.92;;;;;;;3.83;76.22;100118.78;5008420;28;103225;-72
2024/02/02 02:20:36;;;;;;;5.05;2.53;;;;;;;3.77;75.98;100112.13;5012848;28;103053;-72
2024/02/02 02:23:05;;;;;;;4.13;2.30;;;;;;;3.75;75.85;100115.75;5011552;28;102748;-72
2024/02/02 02:25:33;;;;;;;4.40;2.63;;;;;;;3.73;76.00;100121.06;5009967;28;104270;-72
2024/02/02 02:28:01;;;;;;;5.22;3.00;;;;;;;3.76;76.79;100112.19;4994543;28;104441;-72
2024/02/02 02:30:29;;;;;;;4.13;2.83;;;;;;;3.76;76.41;100106.94;5008434;28;103293;-72
2024/02/02 02:32:57;;;;;;;6.13;3.30;;;;;;;3.79;76.11;100098.91;5014753;28;102644;-73
2024/02/02 02:35:27;;;;;;;4.47;2.53;;;;;;;3.75;76.16;100100.88;5006566;28;102616;-72
2024/02/02 02:37:55;;;;;;;9.07;4.40;;;;;;;3.77;76.07;100099.03;5015112;28;104096;-72
2024/02/02 02:40:24;;;;;;;4.78;3.22;;;;;;;3.70;76.55;100092.44;5013134;28;103282;-72
2024/02/02 02:42:52;;;;;;;7.20;4.22;;;;;;;3.70;76.51;100097.69;5009261;28;102853;-72
2024/02/02 02:45:22;;;;;;;4.13;3.13;;;;;;;3.64;76.85;100098.03;4989311;28;103904;-72
2024/02/02 02:47:50;;;;;;;5.78;3.08;;;;;;;3.65;76.77;100099.72;5009520;28;104217;-72
2024/02/02 02:50:18;;;;;;;9.13;3.70;;;;;;;3.62;76.33;100097.28;5007503;28;103154;-72
2024/02/02 02:52:46;;;;;;;5.22;3.40;;;;;;;3.60;76.25;100107.88;4993072;28;102753;-72
2024/02/02 02:55:14;;;;;;;4.45;2.60;;;;;;;3.66;76.71;100106.66;5009279;28;102642;-72
2024/02/02 02:57:46;;;;;;;4.97;2.80;;;;;;;3.62;76.25;100111.22;5015525;28;103244;-72
2024/02/02 03:00:14;;;;;;;6.80;3.58;;;;;;;3.62;76.41;100094.66;5014518;28;103356;-72
2024/02/02 03:02:42;;;;;;;6.75;3.22;;;;;;;3.60;76.49;100101.75;5008014;28;102733;-72
2024/02/02 03:05:10;;;;;;;5.43;2.75;;;;;;;3.56;76.55;100095.00;5005373;28;104125;-72
2024/02/02 03:07:38;;;;;;;5.60;2.83;;;;;;;3.55;76.90;100101.19;5010803;28;104577;-72
2024/02/02 03:10:07;;;;;;;4.93;2.55;;;;;;;3.53;77.30;100096.03;4991282;28;104454;-72
2024/02/02 03:12:35;;;;;;;6.35;2.63;;;;;;;3.62;77.10;100105.16;4991563;28;102673;-72
2024/02/02 03:15:05;;;;;;;6.85;3.70;;;;;;;3.70;76.52;100102.91;5013030;28;104144;-72
2024/02/02 03:17:33;;;;;;;4.32;2.40;;;;;;;3.70;76.99;100094.22;5013497;28;103228;-73
2024/02/02 03:20:07;;;;;;;4.80;2.95;;;;;;;3.72;77.11;100087.97;4995824;28;104197;-73
2024/02/02 03:22:35;;;;;;;6.10;2.97;;;;;;;3.76;77.17;100089.47;5012498;28;102586;-73
2024/02/02 03:25:03;;;;;;;6.43;3.03;;;;;;;3.80;77.02;100079.66;5017918;28;102816;-73
2024/02/02 03:27:32;;;;;;;4.57;2.22;;;;;;;3.72;76.82;100080.09;5009175;28;103295;-74
2024/02/02 03:30:07;;;;;;;8.70;3.97;;;;;;;3.78;77.04;100079.72;5011705;28;103231;-73
2024/02/02 03:32:37;;;;;;;5.95;3.00;;;;;;;3.77;77.04;100082.44;4999418;28;102830;-73
2024/02/02 03:35:07;;;;;;;5.63;2.78;;;;;;;3.74;77.08;100093.94;5013410;28;102736;-73
2024/02/02 03:37:35;;;;;;;4.43;2.10;;;;;;;3.71;77.00;100095.88;4991929;28;103426;-72
2024/02/02 03:40:04;;;;;;;3.65;2.58;;;;;;;3.70;77.04;100091.59;5008774;28;103341;-73
2024/02/02 03:42:32;;;;;;;6.47;2.70;;;;;;;3.66;77.09;100096.16;4987769;28;103012;-73
2024/02/02 03:45:00;;;;;;;6.38;3.13;;;;;;;3.66;77.14;100093.56;5015784;28;102694;-73
2024/02/02 03:47:30;;;;;;;7.25;3.20;;;;;;;3.54;77.62;100099.47;4994275;28;104866;-73
2024/02/02 03:49:58;;;;;;;6.07;2.72;;;;;;;3.58;77.41;100101.03;5012193;28;103471;-73
2024/02/02 03:52:26;;;;;;;7.85;3.72;;;;;;;3.69;77.70;100103.00;4986687;28;103171;-72
2024/02/02 03:54:54;;;;;;;6.43;3.80;;;;;;;3.55;77.20;100093.31;5006787;28;103484;-74
2024/02/02 03:57:22;;;;;;;7.20;3.28;;;;;;;3.50;78.66;100085.75;5008185;28;104127;-73
2024/02/02 03:59:50;;;;;;;6.22;3.03;;;;;;;3.56;77.73;100084.53;5006339;28;103262;-73
2024/02/02 04:02:18;;;;;;;4.70;2.78;;;;;;;3.65;78.01;100073.50;5015506;28;102731;-73
2024/02/02 04:04:47;;;;;;;4.25;2.30;;;;;;;3.69;77.79;100085.50;5009999;28;103910;-72
2024/02/02 04:07:18;;;;;;;7.88;3.40;;;;;;;3.77;77.85;100085.06;5013006;28;103065;-73
2024/02/02 04:09:46;;;;;;;10.65;4.00;;;;;;;3.72;77.69;100085.34;5011168;28;103160;-73
2024/02/02 04:12:14;;;;;;;10.45;4.10;;;;;;;3.47;77.46;100092.00;5007450;28;103657;-72
2024/02/02 04:14:42;;;;;;;11.75;4.72;;;;;;;3.50;78.20;100101.47;4996802;28;103571;-72
2024/02/02 04:17:09;;;;;;;7.93;4.07;;;;;;;3.34;78.19;100111.13;5008558;28;103362;-73
2024/02/02 04:19:37;;;;;;;6.72;3.90;;;;;;;3.17;78.99;100114.69;4988345;28;103222;-72
2024/02/02 04:22:07;;;;;;;6.95;3.53;;;;;;;3.13;79.28;100114.88;5008515;28;102741;-73
2024/02/02 04:24:35;;;;;;;7.32;3.65;;;;;;;3.32;78.46;100103.34;5009666;28;104093;-73
2024/02/02 04:27:03;;;;;;;8.32;3.47;;;;;;;3.29;78.38;100106.16;4988959;28;104502;-72
2024/02/02 04:29:32;;;;;;;6.25;3.15;;;;;;;3.38;78.31;100113.50;5006049;28;103336;-73
2024/02/02 04:31:59;;;;;;;6.20;2.78;;;;;;;3.51;78.17;100107.53;5009256;28;102648;-72
2024/02/02 04:34:28;;;;;;;9.85;4.35;;;;;;;3.59;78.64;100100.06;5007574;28;105014;-73
2024/02/02 04:36:56;;;;;;;13.25;5.10;;;;;;;3.49;78.16;100105.00;4989396;28;104249;-73
2024/02/02 04:39:28;;;;;;;11.20;4.70;;;;;;;3.37;78.62;100111.78;5008292;28;103284;-72
2024/02/02 04:41:56;;;;;;;10.48;4.63;;;;;;;3.51;77.88;100110.16;5009152;28;102626;-72
2024/02/02 04:44:26;;;;;;;7.78;3.50;;;;;;;3.51;78.15;100111.00;4996212;28;103069;-73
2024/02/02 04:46:54;;;;;;;5.45;3.35;;;;;;;3.61;78.16;100108.69;5010231;28;103285;-73
2024/02/02 04:49:22;;;;;;;5.20;3.10;;;;;;;3.72;78.24;100106.31;4986737;28;104666;-72
2024/02/02 04:51:50;;;;;;;6.13;3.33;;;;;;;3.73;77.96;100102.72;5009443;28;102681;-72
2024/02/02 04:54:18;;;;;;;9.32;3.30;;;;;;;3.70;78.08;100108.16;4988101;28;102803;-72
2024/02/02 04:56:47;;;;;;;11.65;4.43;;;;;;;3.75;77.57;100100.88;5009633;28;104097;-72
2024/02/02 04:59:15;;;;;;;7.65;3.30;;;;;;;3.71;77.94;100104.59;4995057;28;103465;-72
2024/02/02 05:01:43;;;;;;;10.45;4.43;;;;;;;3.74;77.67;100099.19;4998993;28;102959;-73
2024/02/02 05:04:12;;;;;;;4.70;3.00;;;;;;;3.72;77.99;100106.31;4989331;28;103493;-73
2024/02/02 05:06:40;;;;;;;9.80;4.38;;;;;;;3.80;78.30;100106.69;5008521;28;103406;-73
2024/02/02 05:09:08;;;;;;;8.02;4.50;;;;;;;3.71;77.85;100112.47;5009662;28;103223;-73
2024/02/02 05:11:36;;;;;;;7.68;3.95;;;;;;;3.78;78.73;100116.41;5009198;28;102723;-74
2024/02/02 05:14:05;;;;;;;7.13;3.78;;;;;;;3.79;78.56;100112.03;5006886;28;104312;-72
2024/02/02 05:16:33;;;;;;;5.43;3.08;;;;;;;3.87;78.53;100119.44;5003272;28;103920;-74
2024/02/02 05:19:01;;;;;;;8.38;4.35;;;;;;;3.93;78.20;100113.81;5006138;28;104695;-73
2024/02/02 05:21:30;;;;;;;7.75;3.97;;;;;;;3.88;77.72;100121.97;5007109;28;102740;-72
2024/02/02 05:23:58;;;;;;;5.22;3.22;;;;;;;3.86;77.80;100123.00;5014823;28;102561;-74
2024/02/02 05:26:45;;;;;;;11.68;4.40;;;;;;;3.92;77.37;100128.72;4991783;28;104925;-74
2024/02/02 05:29:14;;;;;;;9.88;4.47;;;;;;;3.74;77.73;100133.25;5012156;28;103394;-74
2024/02/02 05:31:42;;;;;;;9.63;4.40;;;;;;;3.76;78.66;100143.63;5012366;28;102540;-73
2024/02/02 05:34:10;;;;;;;7.38;3.38;;;;;;;3.85;78.21;100142.25;5005085;28;102752;-73
2024/02/02 05:36:38;;;;;;;6.80;4.13;;;;;;;3.89;77.79;100155.13;5007513;28;104205;-73
2024/02/02 05:39:08;;;;;;;7.13;3.50;;;;;;;3.93;78.56;100166.25;5006632;28;103225;-72
2024/02/02 05:41:36;;;;;;;11.80;5.07;;;;;;;3.98;77.65;100167.69;4987901;28;102763;-72
2024/02/02 05:44:04;;;;;;;10.50;4.38;;;;;;;3.98;77.89;100169.44;5007749;28;103953;-76
2024/02/02 05:46:34;;;;;;;9.85;4.80;;;;;;;3.88;78.48;100168.28;5004819;28;104032;-73
2024/02/02 05:49:05;;;;;;;11.20;5.63;;;;;;;3.93;78.39;100169.72;4979008;28;103000;-73
2024/02/02 05:51:33;;;;;;;11.85;4.80;;;;;;;3.86;78.20;100164.94;4984678;28;102727;-73
2024/02/02 05:54:01;;;;;;;11.23;4.72;;;;;;;3.70;78.49;100168.44;5001814;28;102742;-74
2024/02/02 05:56:29;;;;;;;7.13;4.25;;;;;;;3.78;78.44;100174.06;4986164;28;104040;-73
2024/02/02 05:58:57;;;;;;;11.00;3.90;;;;;;;3.80;78.57;100177.44;5001642;28;103305;-73
2024/02/02 06:01:25;;;;;;;9.15;4.47;;;;;;;3.84;77.72;100177.25;4983557;28;103397;-73
2024/02/02 06:03:56;;;;;;;6.47;3.63;;;;;;;3.92;78.29;100169.81;4985694;28;104445;-73
2024/02/02 06:06:24;;;;;;;7.47;3.25;;;;;;;4.03;78.22;100161.31;5005781;28;103435;-73
2024/02/02 06:08:52;;;;;;;5.75;3.17;;;;;;;4.08;77.90;100162.72;4985092;28;104359;-73
2024/02/02 06:11:23;;;;;;;8.95;3.78;;;;;;;4.17;78.06;100157.88;4991839;28;102837;-76
2024/02/02 06:13:54;;;;;;;8.68;4.25;;;;;;;4.20;78.11;100155.91;5008339;28;102854;-76
2024/02/02 06:16:24;;;;;;;4.95;2.97;;;;;;;4.22;78.34;100155.81;4997499;27;104448;-76
2024/02/02 06:18:52;;;;;;;7.47;3.85;;;;;;;4.26;78.34;100154.72;4992324;28;103320;-73
2024/02/02 06:21:22;;;;;;;5.47;3.30;;;;;;;4.31;77.97;100165.78;4986441;28;102760;-74
2024/02/02 06:23:50;;;;;;;8.70;4.43;;;;;;;4.35;77.86;100155.94;5012029;28;105653;-74
2024/02/02 06:26:20;;;;;;;5.22;3.20;;;;;;;4.30;77.82;100159.69;5008266;28;103288;-75
2024/02/02 06:28:48;;;;;;;5.38;3.03;;;;;;;4.35;77.75;100166.41;5013676;28;103293;-74
2024/02/02 06:31:16;;;;;;;6.20;3.03;;;;;;;4.34;77.83;100165.59;5011976;28;102604;-74
2024/02/02 06:33:44;;;;;;;9.77;4.82;;;;;;;4.27;77.83;100170.38;5006763;28;103777;-76
2024/02/02 06:36:13;;;;;;;8.00;4.63;;;;;;;4.23;77.81;100171.47;4993519;28;103446;-75
2024/02/02 06:38:42;;;;;;;10.75;5.03;;;;;;;4.12;78.19;100177.34;4998772;27;103118;-75
2024/02/02 06:41:11;;;;;;;10.60;4.57;;;;;;;3.97;79.27;100188.75;4987995;28;102740;-74
2024/02/02 06:43:39;;;;;;;9.43;4.30;;;;;;;3.97;79.44;100194.00;4989947;28;102915;-75
2024/02/02 06:46:07;;;;;;;13.10;5.00;;;;;;;4.02;78.88;100194.53;5012010;28;104100;-75
2024/02/02 06:48:35;;;;;;;8.35;5.03;;;;;;;3.97;79.19;100194.81;5011217;28;103307;-75
2024/02/02 06:51:03;;;;;;;9.38;4.75;;;;;;;4.04;78.92;100200.56;5011165;28;102694;-74
2024/02/02 06:53:33;;;;;;;8.00;3.92;;;;;;;4.04;78.80;100200.56;4990830;28;104111;-77
2024/02/02 06:56:03;;;;;;;11.40;5.28;;;;;;;4.04;78.78;100195.31;4991955;28;104419;-75
2024/02/02 06:58:41;;;;;;;9.63;4.85;;;;;;;4.00;79.38;100214.78;4975563;28;104311;-75
2024/02/02 07:01:10;;;;;;;9.50;4.97;;;;;;;4.06;79.44;100197.84;5005532;28;102700;-75
2024/02/02 07:03:39;;;;;;;9.32;4.82;;;;;;;4.07;79.02;100204.78;4994056;28;103987;-76
2024/02/02 07:06:07;;;;;;;12.60;5.38;;;;;;;3.96;79.10;100210.66;5011270;28;104131;-76
2024/02/02 07:08:36;;;;;;;5.68;3.42;;;;;;;4.03;79.44;100203.28;5014777;28;103192;-73
2024/02/02 07:11:23;;;;;;;6.63;3.60;;;;;;;4.13;79.07;100199.19;4992331;28;102783;-73
2024/02/02 07:13:52;;;;;;;4.70;3.00;;;;;;;4.23;79.06;100204.72;5009554;28;103206;-74
2024/02/02 07:16:28;;;;;;;6.93;3.47;;;;;;;4.30;78.96;100200.81;5011663;28;104384;-76
2024/02/02 07:18:57;;;;;;;7.22;4.32;;;;;;;4.36;78.61;100200.44;5000630;28;104086;-74
2024/02/02 07:21:30;;;;;;;7.85;3.70;;;;;;;4.37;78.53;100204.75;5003119;28;103105;-74
2024/02/02 07:23:59;;;;;;;6.78;3.40;;;;;;;4.42;78.70;100209.72;5011293;28;103984;-73
2024/02/02 07:26:32;;;;;;;5.65;3.50;;;;;;;4.46;78.58;100209.44;5012029;28;103740;-75
2024/02/02 07:29:04;;;;;;;5.13;3.17;;;;;;;4.50;78.65;100211.91;4988514;28;103739;-75
2024/02/02 07:31:37;;;;;;;7.15;3.42;;;;;;;4.55;78.54;100215.09;5014362;27;102698;-77
2024/02/02 07:34:30;;;;;;;6.13;4.20;;;;;;;4.61;78.64;100214.69;5012729;28;102739;-79
2024/02/02 07:36:58;;;;;;;10.90;4.88;;;;;;;4.59;78.51;100211.34;4996398;28;102684;-80
2024/02/02 07:39:28;;;;;;;7.40;3.92;;;;;;;4.63;78.23;100197.09;4983666;28;103454;-79
2024/02/02 07:42:00;;;;;;;7.43;4.38;;;;;;;4.69;78.12;100188.00;4986074;28;102648;-79
2024/02/02 07:44:28;;;;;;;6.57;4.28;;;;;;;4.73;78.01;100181.63;4986795;28;103143;-77
2024/02/02 07:46:56;;;;;;;10.25;7.18;;;;;;;4.40;78.18;100195.84;5005730;28;104161;-79
2024/02/02 07:49:24;;;;;;;14.10;7.70;;;;;;;4.50;78.75;100198.78;5011938;28;103278;-80
2024/02/02 07:51:52;;;;;;;16.30;9.70;;;;;;;4.54;78.71;100187.16;4996410;28;102703;-80
2024/02/02 07:54:20;;;;;;;10.63;6.07;;;;;;;4.62;79.13;100185.75;4994516;28;102717;-82
2024/02/02 07:56:49;;;;;;;10.18;6.25;;;;;;;4.72;78.17;100177.31;5015427;28;103293;-81
2024/02/02 07:59:18;;;;;;;12.82;7.43;;;;;;;4.66;78.59;100194.28;4986687;28;104325;-80
2024/02/02 08:01:48;;;;;;;8.45;5.40;;;;;;;4.65;79.26;100192.56;5009947;28;102691;-79
2024/02/02 08:04:17;;;;;;;7.78;5.57;;;;;;;4.73;78.72;100192.97;4986442;28;104095;-82
2024/02/02 08:06:48;;;;;;;12.52;6.45;;;;;;;4.53;79.19;100198.59;5006991;28;103304;-79
2024/02/02 08:09:17;;;;;;;8.50;5.90;;;;;;;4.56;79.64;100201.88;4993615;28;103398;-80
2024/02/02 08:11:54;;;;;;;9.48;5.38;;;;;;;4.62;79.37;100195.41;4989550;28;103128;-83
2024/02/02 08:14:33;;;;;;;11.23;6.18;;;;;;;4.64;78.93;100188.28;4980257;28;103667;-78
2024/02/02 08:17:09;;;;;;;11.45;6.50;;;;;;;4.49;80.03;100197.91;4998048;28;104242;-77
2024/02/02 08:19:38;;;;;;;11.13;5.68;;;;;;;4.55;79.72;100200.19;5012173;28;103453;-78
2024/02/02 08:22:06;;;;;;;9.68;5.00;;;;;;;4.61;79.75;100198.97;4984376;27;102722;-79
2024/02/02 08:24:35;;;;;;;7.50;5.00;;;;;;;4.75;79.96;100182.38;4993554;27;102896;-84
2024/02/02 08:27:04;;;;;;;7.22;4.45;;;;;;;4.88;79.61;100164.09;4987063;28;102686;-77
2024/02/02 08:29:35;;;;;;;10.35;5.38;;;;;;;4.97;79.10;100161.72;5010385;28;103674;-76
2024/02/02 08:32:05;;;;;;;7.60;4.55;;;;;;;5.05;79.07;100177.00;5008721;28;102694;-77
2024/02/02 08:34:33;;;;;;;9.07;4.57;;;;;;;5.12;78.82;100178.31;5009923;28;104178;-75
2024/02/02 08:37:02;;;;;;;7.15;4.05;;;;;;;5.20;78.79;100175.22;5001780;28;104329;-77
2024/02/02 08:39:34;;;;;;;5.97;3.72;;;;;;;5.26;78.45;100176.59;4991459;28;102977;-76
2024/02/02 08:42:08;;;;;;;11.50;7.45;;;;;;;5.25;78.00;100182.78;4991585;28;102905;-74
2024/02/02 08:44:38;;;;;;;10.70;6.55;;;;;;;5.18;78.48;100186.75;5003322;28;102675;-75
2024/02/02 08:47:08;;;;;;;13.32;7.60;;;;;;;5.11;78.62;100181.03;4985604;28;104250;-75
2024/02/02 08:49:53;;;;;;;13.32;6.20;;;;;;;5.15;79.20;100179.91;4990766;28;104310;-76
2024/02/02 08:52:28;;;;;;;11.45;6.40;;;;;;;5.24;79.06;100178.47;4988676;28;102792;-76
2024/02/02 08:54:56;;;;;;;8.13;5.43;;;;;;;5.35;78.92;100173.38;5004651;28;103570;-76
2024/02/02 08:57:40;;;;;;;8.43;6.03;;;;;;;5.52;79.04;100166.19;5004125;28;103994;-76
2024/02/02 09:00:26;;;;;;;10.52;6.80;;;;;;;5.61;78.79;100165.59;5007961;28;103150;-76
2024/02/02 09:03:04;;;;;;;9.70;6.13;;;;;;;5.68;78.46;100164.25;4996670;28;102889;-77
2024/02/02 09:05:50;;;;;;;12.70;7.53;;;;;;;5.73;78.20;100149.00;4982770;28;104002;-76
2024/02/02 09:08:27;;;;;;;7.90;5.57;;;;;;;5.76;78.38;100150.59;4982340;28;104328;-74
2024/02/02 09:11:17;;;;;;;6.85;4.95;;;;;;;5.82;78.03;100166.81;4985059;28;103706;-75
2024/02/02 09:13:46;;;;;;;9.55;5.15;;;;;;;5.88;78.13;100173.47;5005781;28;102772;-75
2024/02/02 09:16:17;;;;;;;7.45;4.43;;;;;;;5.92;78.10;100171.44;4980200;28;103372;-76
2024/02/02 09:18:53;;;;;;;8.13;4.60;;;;;;;5.98;77.74;100181.59;4984216;28;104304;-76
2024/02/02 09:21:27;;;;;;;7.90;4.15;;;;;;;6.06;77.42;100181.91;4995799;28;103988;-76
2024/02/02 09:23:56;;;;;;;7.35;4.85;;;;;;;6.13;77.34;100183.22;4992560;28;102756;-75
2024/02/02 09:26:35;;;;;;;6.47;4.05;;;;;;;6.19;77.79;100189.84;5004090;28;104202;-75
2024/02/02 09:29:04;;;;;;;10.45;5.38;;;;;;;6.26;77.44;100179.75;4991210;28;103445;-76
2024/02/02 09:31:37;;;;;;;8.50;4.93;;;;;;;6.30;76.51;100175.94;4985338;28;104174;-75
2024/02/02 09:34:08;;;;;;;7.95;4.70;;;;;;;6.38;76.77;100173.66;5011407;28;102692;-75
2024/02/02 09:36:38;;;;;;;7.93;4.55;;;;;;;6.46;76.13;100173.97;5017704;28;102710;-75
2024/02/02 09:39:24;;;;;;;8.07;4.60;;;;;;;6.44;75.94;100183.75;4990924;28;102801;-76
2024/02/02 09:42:13;;;;;;;8.98;5.38;;;;;;;6.49;75.02;100182.63;4988726;28;104330;-76
2024/02/02 09:44:46;;;;;;;9.27;5.45;;;;;;;6.51;74.00;100188.59;4998298;28;102651;-76
2024/02/02 09:47:37;;;;;;;9.57;5.22;;;;;;;6.61;75.11;100181.75;5005729;28;103528;-75
2024/02/02 09:50:28;;;;;;;9.52;5.15;;;;;;;6.68;75.62;100185.66;5009935;28;103415;-76
2024/02/02 09:53:11;;;;;;;15.88;7.35;;;;;;;6.73;74.51;100178.25;5007212;28;104568;-74
2024/02/02 09:55:47;;;;;;;7.82;5.13;;;;;;;6.71;75.61;100169.63;4987410;28;102792;-76
2024/02/02 09:58:24;;;;;;;6.47;4.53;;;;;;;6.77;75.32;100185.03;5003229;28;103013;-74
2024/02/02 10:01:00;;;;;;;10.02;5.20;;;;;;;6.82;74.68;100183.84;5003865;28;104187;-77
2024/02/02 10:03:39;;;;;;;10.63;5.82;;;;;;;6.74;74.04;100189.66;5013368;28;103138;-76
2024/02/02 10:06:24;;;;;;;8.43;5.82;;;;;;;6.84;73.11;100195.97;4998701;28;102937;-75
2024/02/02 10:09:13;;;;;;;9.10;5.47;;;;;;;6.89;73.73;100203.53;4991276;28;104200;-75
2024/02/02 10:12:01;;;;;;;9.32;5.82;;;;;;;6.79;74.66;100198.91;4985249;28;104145;-75
2024/02/02 10:14:58;;;;;;;7.25;4.45;;;;;;;6.96;73.84;100194.25;4985816;28;103189;-75
2024/02/02 10:17:41;;;;;;;8.23;5.68;;;;;;;6.97;74.21;100178.34;5017004;28;102977;-75
2024/02/02 10:20:26;;;;;;;8.48;4.95;;;;;;;6.96;74.39;100199.53;4992558;28;103848;-74
2024/02/02 10:23:27;;;;;;;7.55;5.22;;;;;;;7.07;74.06;100198.75;5007543;28;103363;-79
2024/02/02 10:26:15;;;;;;;8.43;6.25;;;;;;;7.06;74.27;100195.28;5004825;28;103226;-82
2024/02/02 10:28:52;;;;;;;6.32;4.57;;;;;;;7.23;73.72;100185.31;4997623;28;102809;-82
2024/02/02 10:31:38;;;;;;;6.38;4.47;;;;;;;7.49;73.55;100172.06;4993414;28;104315;-80
2024/02/02 10:34:20;;;;;;;7.00;5.03;;;;;;;7.65;73.39;100170.00;4994584;28;104305;-82
2024/02/02 10:37:04;;;;;;;7.20;5.07;;;;;;;7.87;73.18;100160.47;5018056;28;103313;-79
2024/02/02 10:39:49;;;;;;;7.35;5.32;;;;;;;7.98;72.84;100149.97;5014662;28;102712;-79
2024/02/02 10:42:31;;;;;;;10.52;6.28;;;;;;;8.11;72.32;100150.72;5020131;28;104532;-80
2024/02/02 10:45:08;;;;;;;7.72;5.25;;;;;;;8.34;73.11;100150.75;5012250;28;104580;-80
2024/02/02 10:47:52;;;;;;;9.05;5.10;;;;;;;8.50;72.54;100157.53;5007309;28;103177;-79
2024/02/02 10:50:27;;;;;;;6.38;4.68;;;;;;;8.55;72.44;100158.00;4977583;28;102995;-80
2024/02/02 10:53:09;;;;;;;11.50;6.85;;;;;;;8.62;70.96;100135.47;5012962;28;104332;-81
2024/02/02 10:55:48;;;;;;;8.15;4.68;;;;;;;8.79;70.97;100111.19;4991592;28;105086;-81
2024/02/02 10:58:30;;;;;;;9.82;6.13;;;;;;;8.79;70.70;100107.72;5007119;28;103199;-81
2024/02/02 11:01:07;;;;;;;10.27;5.70;;;;;;;9.11;69.93;100101.63;4990215;28;102727;-80
2024/02/02 11:03:40;;;;;;;9.57;4.85;;;;;;;9.37;69.52;100096.88;5001281;28;103039;-80
2024/02/02 11:06:21;;;;;;;8.00;4.90;;;;;;;9.35;68.20;100092.66;4991065;28;103354;-82
2024/02/02 11:08:57;;;;;;;8.00;4.70;;;;;;;9.44;67.79;100082.16;4976017;28;105062;-82
2024/02/02 11:11:28;;;;;;;6.95;3.63;;;;;;;9.66;67.40;100079.56;5005441;28;103102;-82
2024/02/02 11:14:04;;;;;;;5.20;3.47;;;;;;;10.10;66.03;100075.78;5003971;28;104205;-81
2024/02/02 11:16:48;;;;;;;5.38;3.20;;;;;;;10.03;63.78;100082.56;4989651;28;104455;-80
2024/02/02 11:19:22;;;;;;;5.22;2.97;;;;;;;10.02;61.71;100083.56;5010015;28;102742;-81
2024/02/02 11:22:14;;;;;;;4.72;2.70;;;;;;;10.27;60.81;100081.44;5001610;28;102652;-78
2024/02/02 11:24:56;;;;;;;4.25;2.58;;;;;;;10.34;61.56;100087.06;5002850;28;103889;-79
2024/02/02 11:27:32;;;;;;;5.10;2.28;;;;;;;10.49;62.21;100071.66;5005512;28;104394;-82
2024/02/02 11:30:05;;;;;;;4.30;2.05;;;;;;;10.70;60.95;100071.59;4997031;28;103242;-78
2024/02/02 11:32:57;;;;;;;5.10;2.20;;;;;;;11.02;59.37;100076.69;5007099;28;102641;-76
2024/02/02 11:35:33;;;;;;;3.60;2.08;;;;;;;11.15;58.26;100084.41;5009203;28;102604;-79
2024/02/02 11:38:11;;;;;;;3.45;2.00;;;;;;;11.36;58.86;100071.00;4983792;28;104349;-78
2024/02/02 11:40:42;;;;;;;4.72;2.65;;;;;;;11.08;57.66;100072.66;5004914;28;102676;-79
2024/02/02 11:43:11;;;;;;;3.13;2.10;;;;;;;11.35;57.87;100064.00;4990368;28;102790;-80
2024/02/02 11:45:41;;;;;;;3.90;2.25;;;;;;;11.49;56.83;100059.25;5005604;28;104434;-80